Time;durP1;ratioP1;P1;durP2;ratioP2;P2;SDS_P1;SDS_P2;PMS_P1;PMS_P2;Temp;Humidity;BMP_temperature;BMP_pressure;BME280_temperature;BME280_humidity;BME280_pressure;Samples;Min_cycle;Max_cycle;Signal;HPM_P1;HPM_P2
2021/06/05 00:00:24;;;;;;;13.32;2.92;;;15.60;99.90;;;;;;4958365;28;20038;-87
2021/06/05 00:02:50;;;;;;;14.63;2.92;;;15.60;99.90;;;;;;4956361;28;20023;-86
2021/06/05 00:05:16;;;;;;;11.98;2.80;;;15.60;99.90;;;;;;4954103;28;20182;-87
2021/06/05 00:07:42;;;;;;;14.23;3.17;;;15.60;99.90;;;;;;4955708;28;20081;-86
2021/06/05 00:10:12;;;;;;;15.90;3.05;;;15.60;99.90;;;;;;4953761;28;20094;-86
2021/06/05 00:12:38;;;;;;;14.13;3.42;;;15.50;99.90;;;;;;4957354;28;20031;-86
2021/06/05 00:15:16;;;;;;;16.13;3.38;;;15.50;99.90;;;;;;4953587;28;20027;-87
2021/06/05 00:17:42;;;;;;;10.18;3.13;;;15.50;99.90;;;;;;4963277;28;20058;-87
2021/06/05 00:20:09;;;;;;;13.15;3.50;;;15.50;99.90;;;;;;4957751;28;20067;-86
2021/06/05 00:22:35;;;;;;;10.90;3.20;;;15.40;99.90;;;;;;4959624;28;20042;-87
2021/06/05 00:25:01;;;;;;;18.05;3.63;;;15.50;99.90;;;;;;4953849;28;20027;-87
2021/06/05 00:27:27;;;;;;;11.50;3.20;;;15.40;99.90;;;;;;4963187;28;20046;-86
2021/06/05 00:29:52;;;;;;;15.38;3.33;;;15.40;99.90;;;;;;4952991;28;20035;-86
2021/06/05 00:32:18;;;;;;;14.27;2.88;;;15.40;99.90;;;;;;4958323;28;20020;-86
2021/06/05 00:34:44;;;;;;;11.27;2.92;;;15.40;99.90;;;;;;4953051;28;20102;-86
2021/06/05 00:37:09;;;;;;;16.33;3.60;;;15.50;99.90;;;;;;4959061;28;20035;-86
2021/06/05 00:39:35;;;;;;;10.70;2.85;;;15.40;99.90;;;;;;4953090;28;20401;-86
2021/06/05 00:42:01;;;;;;;17.50;3.53;;;15.30;99.90;;;;;;4959844;28;20053;-86
2021/06/05 00:44:27;;;;;;;15.32;3.38;;;15.30;99.90;;;;;;4953226;28;20456;-87
2021/06/05 00:46:52;;;;;;;13.38;3.40;;;15.30;99.90;;;;;;4958846;28;20053;-86
2021/06/05 00:49:18;;;;;;;10.82;2.97;;;15.30;99.90;;;;;;4952841;28;20020;-86
2021/06/05 00:51:49;;;;;;;13.52;3.63;;;15.30;99.90;;;;;;4956942;28;20098;-86
2021/06/05 00:54:17;;;;;;;17.33;3.97;;;15.30;99.90;;;;;;4952470;28;20024;-86
2021/06/05 00:56:47;;;;;;;18.40;3.33;;;15.30;99.90;;;;;;4955847;28;20055;-86
2021/06/05 00:59:12;;;;;;;16.88;3.47;;;15.30;99.90;;;;;;4954299;28;20094;-86
2021/06/05 01:01:40;;;;;;;12.95;3.70;;;15.30;99.90;;;;;;4957487;28;20559;-86
2021/06/05 01:04:06;;;;;;;13.60;3.22;;;15.30;99.90;;;;;;4956272;28;20030;-85
2021/06/05 01:06:57;;;;;;;13.63;3.00;;;15.30;99.90;;;;;;4957188;28;20018;-87
2021/06/05 01:09:36;;;;;;;12.75;3.22;;;15.20;99.90;;;;;;4952601;28;20031;-86
2021/06/05 01:12:15;;;;;;;17.80;3.42;;;15.20;99.90;;;;;;4954528;28;20031;-86
2021/06/05 01:14:51;;;;;;;14.93;3.40;;;15.30;99.90;;;;;;4951871;29;20107;-86
2021/06/05 01:17:39;;;;;;;13.38;3.72;;;15.30;99.90;;;;;;4969713;28;20069;-86
2021/06/05 01:20:26;;;;;;;22.08;4.40;;;15.20;99.90;;;;;;4951913;28;20026;-87
2021/06/05 01:23:06;;;;;;;10.60;3.08;;;15.20;99.90;;;;;;4956185;28;20024;-86
2021/06/05 01:26:04;;;;;;;15.82;3.58;;;15.20;99.90;;;;;;4953582;28;20369;-87
2021/06/05 01:28:32;;;;;;;21.10;3.83;;;15.20;99.90;;;;;;4959509;28;20037;-86
2021/06/05 01:31:01;;;;;;;9.38;3.38;;;15.20;99.90;;;;;;4954509;28;20038;-87
2021/06/05 01:33:29;;;;;;;12.52;3.53;;;15.20;99.90;;;;;;4960396;28;20034;-87
2021/06/05 01:35:55;;;;;;;15.60;3.38;;;15.10;99.90;;;;;;4953609;28;20031;-87
2021/06/05 01:38:26;;;;;;;13.63;3.25;;;15.10;99.90;;;;;;4956411;28;20054;-86
2021/06/05 01:40:53;;;;;;;14.57;3.47;;;15.10;99.90;;;;;;4969150;28;20438;-86
2021/06/05 01:43:23;;;;;;;18.05;3.88;;;15.10;99.90;;;;;;4952222;28;20369;-86
2021/06/05 01:45:50;;;;;;;16.00;4.15;;;15.10;99.90;;;;;;4954070;28;20118;-87
2021/06/05 01:48:16;;;;;;;13.95;3.42;;;15.00;99.90;;;;;;4959212;28;20015;-86
2021/06/05 01:50:44;;;;;;;11.32;3.40;;;15.00;99.90;;;;;;4953991;28;20480;-86
2021/06/05 01:53:17;;;;;;;10.75;3.40;;;15.10;99.90;;;;;;4953787;28;20074;-86
2021/06/05 01:56:08;;;;;;;14.83;3.70;;;15.10;99.90;;;;;;4953889;28;20117;-86
2021/06/05 01:58:34;;;;;;;16.27;3.63;;;15.10;99.90;;;;;;4954845;28;20555;-86
2021/06/05 02:01:02;;;;;;;15.63;3.55;;;15.10;99.90;;;;;;4953904;28;20536;-87
2021/06/05 02:03:28;;;;;;;15.23;3.50;;;15.10;99.90;;;;;;4955545;28;20038;-86
2021/06/05 02:05:54;;;;;;;14.70;4.00;;;15.10;99.90;;;;;;4953815;28;20114;-87
2021/06/05 02:08:23;;;;;;;17.55;4.40;;;15.10;99.90;;;;;;4956351;28;20066;-86
2021/06/05 02:10:49;;;;;;;15.27;3.50;;;15.00;99.90;;;;;;4965609;28;20079;-86
2021/06/05 02:13:32;;;;;;;13.75;3.88;;;15.00;99.90;;;;;;4954255;28;20512;-87
2021/06/05 02:16:03;;;;;;;14.48;3.53;;;15.00;99.90;;;;;;4954568;28;20034;-87
2021/06/05 02:18:32;;;;;;;10.80;3.42;;;15.00;99.90;;;;;;4952839;28;20027;-87
2021/06/05 02:21:03;;;;;;;11.45;3.60;;;15.00;99.90;;;;;;4952371;28;20070;-87
2021/06/05 02:23:39;;;;;;;16.70;4.00;;;15.00;99.90;;;;;;4959508;28;20082;-87
2021/06/05 02:26:05;;;;;;;14.30;4.05;;;14.90;99.90;;;;;;4952993;28;20448;-87
2021/06/05 02:28:33;;;;;;;17.95;4.40;;;14.90;99.90;;;;;;4960428;28;20022;-86
2021/06/05 02:31:00;;;;;;;20.02;3.83;;;14.80;99.90;;;;;;4954260;28;20523;-87
2021/06/05 02:33:26;;;;;;;14.43;4.25;;;14.80;99.90;;;;;;4952799;28;20026;-87
2021/06/05 02:35:54;;;;;;;14.45;3.65;;;14.80;99.90;;;;;;4953601;28;20030;-87
2021/06/05 02:38:21;;;;;;;18.38;4.32;;;14.80;99.90;;;;;;4953451;28;20477;-86
2021/06/05 02:40:47;;;;;;;19.30;4.50;;;14.70;99.90;;;;;;4968300;28;20113;-87
2021/06/05 02:43:22;;;;;;;14.05;3.90;;;14.70;99.90;;;;;;4941207;28;20438;-87
2021/06/05 02:46:01;;;;;;;18.02;4.38;;;14.70;99.90;;;;;;4955464;28;20022;-87
2021/06/05 02:49:00;;;;;;;15.02;3.75;;;14.70;99.90;;;;;;4963891;28;20039;-87
2021/06/05 02:51:31;;;;;;;18.33;4.30;;;14.70;99.90;;;;;;4957490;28;20027;-86
2021/06/05 02:53:56;;;;;;;13.88;4.60;;;14.70;99.90;;;;;;4955411;28;20035;-87
2021/06/05 02:56:22;;;;;;;14.30;4.70;;;14.70;99.90;;;;;;4948062;28;20058;-87
2021/06/05 02:58:49;;;;;;;12.77;4.05;;;14.60;99.90;;;;;;4955284;28;20074;-87
2021/06/05 03:01:15;;;;;;;20.95;4.40;;;14.60;99.90;;;;;;4957260;28;20468;-87
2021/06/05 03:03:42;;;;;;;16.08;4.65;;;14.50;99.90;;;;;;4955089;28;20043;-86
2021/06/05 03:06:08;;;;;;;15.73;4.43;;;14.50;99.90;;;;;;4956970;28;20035;-87
2021/06/05 03:08:37;;;;;;;12.27;3.78;;;14.50;99.90;;;;;;4944523;28;20062;-88
2021/06/05 03:11:08;;;;;;;17.00;4.13;;;14.50;99.90;;;;;;4956976;28;20504;-87
2021/06/05 03:13:34;;;;;;;16.40;3.92;;;14.50;99.90;;;;;;4957385;28;20062;-87
2021/06/05 03:16:00;;;;;;;12.85;3.60;;;14.40;99.90;;;;;;4959938;28;20070;-86
2021/06/05 03:18:26;;;;;;;12.82;4.10;;;14.50;99.90;;;;;;4956398;28;20366;-87
2021/06/05 03:20:54;;;;;;;11.68;3.92;;;14.50;99.90;;;;;;4956992;28;20105;-86
2021/06/05 03:23:23;;;;;;;15.77;4.25;;;14.50;99.90;;;;;;4954831;28;20019;-87
2021/06/05 03:25:51;;;;;;;13.75;4.35;;;14.50;99.90;;;;;;4957539;28;20038;-87
2021/06/05 03:28:24;;;;;;;16.17;4.18;;;14.50;99.90;;;;;;4956375;28;20023;-87
2021/06/05 03:30:51;;;;;;;10.10;3.92;;;14.50;99.90;;;;;;4956560;28;20150;-86
2021/06/05 03:33:18;;;;;;;18.48;4.35;;;14.40;99.90;;;;;;4954385;28;20023;-87
2021/06/05 03:35:44;;;;;;;20.02;4.55;;;14.40;99.90;;;;;;4955764;28;20031;-86
2021/06/05 03:38:10;;;;;;;12.95;3.88;;;14.40;99.90;;;;;;4956649;28;20384;-87
2021/06/05 03:40:36;;;;;;;16.13;4.32;;;14.40;99.90;;;;;;4956295;28;20038;-87
2021/06/05 03:43:02;;;;;;;14.52;4.40;;;14.40;99.90;;;;;;4963149;28;20027;-86
2021/06/05 03:45:28;;;;;;;18.98;4.47;;;14.30;99.90;;;;;;4954983;28;20063;-87
2021/06/05 03:47:55;;;;;;;13.82;4.35;;;14.30;99.90;;;;;;4958793;28;20125;-87
2021/06/05 03:50:24;;;;;;;18.38;4.80;;;14.30;99.90;;;;;;4954386;28;20015;-87
2021/06/05 03:52:50;;;;;;;16.10;4.75;;;14.30;99.90;;;;;;4960812;28;20022;-87
2021/06/05 03:55:16;;;;;;;20.90;4.45;;;14.20;99.90;;;;;;4954073;28;20023;-87
2021/06/05 03:57:41;;;;;;;12.60;4.85;;;14.20;99.90;;;;;;4969728;28;20061;-87
2021/06/05 04:00:10;;;;;;;13.15;4.75;;;14.20;99.90;;;;;;4964228;28;20418;-87
2021/06/05 04:02:36;;;;;;;14.27;4.10;;;14.20;99.90;;;;;;4962461;28;20035;-87
2021/06/05 04:05:03;;;;;;;14.20;4.00;;;14.10;99.90;;;;;;4953966;28;20079;-87
2021/06/05 04:07:29;;;;;;;11.88;4.18;;;14.10;99.90;;;;;;4965083;28;20023;-87
2021/06/05 04:09:55;;;;;;;13.63;4.15;;;14.00;99.90;;;;;;4954621;28;20041;-87
2021/06/05 04:12:21;;;;;;;14.95;4.30;;;14.00;99.90;;;;;;4957508;28;20031;-87
2021/06/05 04:14:47;;;;;;;15.18;4.47;;;14.00;99.90;;;;;;4961251;28;20027;-87
2021/06/05 04:17:12;;;;;;;14.50;4.82;;;14.00;99.90;;;;;;4956259;28;20114;-87
2021/06/05 04:19:39;;;;;;;16.90;4.53;;;13.90;99.90;;;;;;4958899;28;20027;-88
2021/06/05 04:22:06;;;;;;;11.13;4.18;;;13.90;99.90;;;;;;4979232;28;20295;-88
2021/06/05 04:24:33;;;;;;;13.13;4.40;;;13.90;99.90;;;;;;4964412;28;20029;-87
2021/06/05 04:27:02;;;;;;;16.92;4.40;;;13.90;99.90;;;;;;4962834;28;20090;-87
2021/06/05 04:29:29;;;;;;;18.00;5.07;;;13.80;99.90;;;;;;4964183;28;20023;-87
2021/06/05 04:31:54;;;;;;;16.52;4.63;;;13.80;99.90;;;;;;4955192;28;20034;-86
2021/06/05 04:34:21;;;;;;;13.65;4.32;;;13.80;99.90;;;;;;4957085;28;20032;-87
2021/06/05 04:36:52;;;;;;;12.27;4.65;;;13.70;99.90;;;;;;4955193;28;20035;-87
2021/06/05 04:39:19;;;;;;;13.30;4.38;;;13.70;99.90;;;;;;4957674;28;20542;-86
2021/06/05 04:41:45;;;;;;;16.35;5.03;;;13.70;99.90;;;;;;4954022;28;20396;-87
2021/06/05 04:44:11;;;;;;;9.38;4.32;;;13.60;99.90;;;;;;4967798;28;20439;-87
2021/06/05 04:46:36;;;;;;;16.45;5.15;;;13.60;99.90;;;;;;4961316;28;20043;-87
2021/06/05 04:49:03;;;;;;;13.57;4.55;;;13.60;99.90;;;;;;4958606;28;20027;-88
2021/06/05 04:51:30;;;;;;;11.38;4.60;;;13.70;99.90;;;;;;4959523;28;20037;-87
2021/06/05 04:53:57;;;;;;;14.80;4.45;;;13.70;99.90;;;;;;4953048;28;20516;-87
2021/06/05 04:56:31;;;;;;;12.35;4.55;;;13.70;99.90;;;;;;4954894;28;20082;-86
2021/06/05 04:58:57;;;;;;;14.05;4.78;;;13.70;99.90;;;;;;4953666;28;20102;-87
2021/06/05 05:01:22;;;;;;;12.57;4.10;;;13.70;99.90;;;;;;4956187;28;20186;-86
2021/06/05 05:03:48;;;;;;;14.95;5.10;;;13.70;99.90;;;;;;4955070;28;20023;-86
2021/06/05 05:06:14;;;;;;;12.15;4.10;;;13.70;99.90;;;;;;4954817;28;20035;-86
2021/06/05 05:08:40;;;;;;;18.58;4.78;;;13.80;99.90;;;;;;4956811;28;20023;-86
2021/06/05 05:11:06;;;;;;;13.18;4.95;;;13.80;99.90;;;;;;4953974;28;20035;-85
2021/06/05 05:13:34;;;;;;;13.57;5.07;;;13.80;99.90;;;;;;4951785;28;20103;-85
2021/06/05 05:16:03;;;;;;;11.85;4.75;;;13.90;99.90;;;;;;4952174;28;20035;-85
2021/06/05 05:18:29;;;;;;;17.65;5.68;;;13.90;99.90;;;;;;4951955;28;20023;-85
2021/06/05 05:20:55;;;;;;;14.25;5.75;;;13.90;99.90;;;;;;4951656;28;20066;-85
2021/06/05 05:23:25;;;;;;;17.15;5.25;;;14.00;99.90;;;;;;4966518;28;20019;-85
2021/06/05 05:25:51;;;;;;;15.80;4.88;;;14.00;99.90;;;;;;4952917;28;20098;-85
2021/06/05 05:28:17;;;;;;;14.82;4.80;;;14.10;99.90;;;;;;4952506;28;20102;-86
2021/06/05 05:30:47;;;;;;;13.88;4.85;;;14.10;99.90;;;;;;4954626;28;20463;-86
2021/06/05 05:33:13;;;;;;;11.57;4.93;;;14.20;99.90;;;;;;4950144;28;20020;-86
2021/06/05 05:35:39;;;;;;;13.05;4.35;;;14.20;99.90;;;;;;4954520;28;20078;-86
2021/06/05 05:38:07;;;;;;;14.25;5.28;;;14.30;99.90;;;;;;4957007;28;20094;-86
2021/06/05 05:40:34;;;;;;;13.63;4.55;;;14.30;99.90;;;;;;4967964;28;20045;-85
2021/06/05 05:43:00;;;;;;;11.80;4.75;;;14.40;99.90;;;;;;4958788;28;20496;-85
2021/06/05 05:45:26;;;;;;;12.95;4.88;;;14.40;99.90;;;;;;4952607;28;20034;-86
2021/06/05 05:47:54;;;;;;;15.93;4.90;;;14.50;99.90;;;;;;4960567;28;20026;-86
2021/06/05 05:50:20;;;;;;;13.10;5.10;;;14.40;99.90;;;;;;4966647;28;20396;-87
2021/06/05 05:52:46;;;;;;;16.67;5.47;;;14.50;99.90;;;;;;4961942;28;20586;-86
2021/06/05 05:55:13;;;;;;;17.73;4.60;;;14.50;99.90;;;;;;4952241;28;20487;-87
2021/06/05 05:57:39;;;;;;;8.88;4.65;;;14.60;99.90;;;;;;4956931;28;20054;-86
2021/06/05 06:00:11;;;;;;;12.75;5.35;;;14.70;99.90;;;;;;4954168;28;20019;-86
2021/06/05 06:02:36;;;;;;;18.13;5.95;;;14.70;99.90;;;;;;4974230;28;20190;-86
2021/06/05 06:05:03;;;;;;;11.27;4.25;;;14.70;99.90;;;;;;4955127;28;20110;-86
2021/06/05 06:07:28;;;;;;;11.18;4.63;;;14.80;99.90;;;;;;4956321;28;20070;-87
2021/06/05 06:09:54;;;;;;;13.18;4.47;;;14.90;99.90;;;;;;4957043;28;20501;-83
2021/06/05 06:12:20;;;;;;;12.48;4.65;;;15.00;99.90;;;;;;4956780;28;20499;-83
2021/06/05 06:14:48;;;;;;;9.98;4.63;;;15.00;99.90;;;;;;4958974;28;20492;-83
2021/06/05 06:17:14;;;;;;;11.02;4.10;;;15.10;99.90;;;;;;4959572;28;20503;-83
2021/06/05 06:19:40;;;;;;;9.85;4.07;;;15.20;99.90;;;;;;4951431;28;20070;-83
2021/06/05 06:22:06;;;;;;;7.63;3.17;;;15.20;99.90;;;;;;4962430;28;20110;-83
2021/06/05 06:24:32;;;;;;;11.50;3.78;;;15.30;99.90;;;;;;4956613;28;20015;-82
2021/06/05 06:26:57;;;;;;;9.23;3.50;;;15.40;99.90;;;;;;4961964;28;20042;-83
2021/06/05 06:29:29;;;;;;;13.73;3.33;;;15.50;99.90;;;;;;4972755;28;20031;-83
2021/06/05 06:31:55;;;;;;;8.88;3.53;;;15.60;99.90;;;;;;4971492;28;20034;-82
2021/06/05 06:34:23;;;;;;;7.65;2.90;;;15.60;99.90;;;;;;4956202;28;20488;-83
2021/06/05 06:36:50;;;;;;;7.68;2.60;;;15.70;99.90;;;;;;4956351;28;20037;-83
2021/06/05 06:39:16;;;;;;;9.07;2.60;;;15.70;99.90;;;;;;4957197;28;20099;-83
2021/06/05 06:41:43;;;;;;;7.65;2.65;;;15.70;99.90;;;;;;4957632;28;20416;-83
2021/06/05 06:44:09;;;;;;;10.35;3.00;;;15.80;99.90;;;;;;4958044;28;20027;-83
2021/06/05 06:46:40;;;;;;;9.80;2.70;;;15.80;99.90;;;;;;4957160;28;20062;-83
2021/06/05 06:49:07;;;;;;;10.77;3.20;;;15.90;99.90;;;;;;4958702;28;20495;-83
2021/06/05 06:51:34;;;;;;;9.68;2.58;;;15.90;99.90;;;;;;4957210;28;20038;-83
2021/06/05 06:54:00;;;;;;;7.78;2.80;;;16.00;99.90;;;;;;4959259;28;20027;-83
2021/06/05 06:56:26;;;;;;;7.60;2.30;;;16.00;99.90;;;;;;4971703;28;20109;-83
2021/06/05 06:58:52;;;;;;;9.95;2.50;;;16.00;99.90;;;;;;4960093;28;20033;-83
2021/06/05 07:01:19;;;;;;;4.57;1.77;;;16.10;99.90;;;;;;4957309;28;20035;-83
2021/06/05 07:03:45;;;;;;;7.55;2.42;;;16.20;99.90;;;;;;4955471;28;20031;-83
2021/06/05 07:06:11;;;;;;;6.50;1.60;;;16.20;99.90;;;;;;4957078;28;20054;-83
2021/06/05 07:08:40;;;;;;;4.18;1.30;;;16.30;99.90;;;;;;4956313;28;20023;-83
2021/06/05 07:11:18;;;;;;;3.47;1.67;;;16.40;99.90;;;;;;4956781;28;20031;-83
2021/06/05 07:13:44;;;;;;;4.07;1.38;;;16.50;99.90;;;;;;4943107;29;20027;-83
2021/06/05 07:16:11;;;;;;;5.47;1.48;;;16.60;99.90;;;;;;4954615;28;20028;-83
2021/06/05 07:18:38;;;;;;;2.03;0.70;;;16.70;99.90;;;;;;4961722;28;20028;-83
2021/06/05 07:21:06;;;;;;;2.15;0.80;;;16.70;99.90;;;;;;4955562;28;20287;-83
2021/06/05 07:23:33;;;;;;;2.92;0.80;;;16.80;99.90;;;;;;4962407;28;20515;-83
2021/06/05 07:26:01;;;;;;;2.70;0.75;;;16.90;99.90;;;;;;4956137;28;20034;-83
2021/06/05 07:28:32;;;;;;;3.80;1.00;;;16.90;98.10;;;;;;4962678;28;20019;-79
2021/06/05 07:31:00;;;;;;;3.15;0.90;;;17.00;99.80;;;;;;4959139;28;20023;-75
2021/06/05 07:33:26;;;;;;;2.28;0.95;;;17.00;99.80;;;;;;4954010;28;20023;-74
2021/06/05 07:35:53;;;;;;;3.08;0.70;;;17.20;99.90;;;;;;4958270;28;20037;-74
2021/06/05 07:38:20;;;;;;;3.63;0.70;;;17.10;98.60;;;;;;4962621;28;20019;-74
2021/06/05 07:40:47;;;;;;;4.15;1.00;;;17.20;97.00;;;;;;4958187;28;20539;-73
2021/06/05 07:43:15;;;;;;;2.38;0.90;;;17.30;98.40;;;;;;4956666;28;20031;-73
2021/06/05 07:45:41;;;;;;;3.13;0.80;;;17.30;97.90;;;;;;4957719;28;20042;-76
2021/06/05 07:48:06;;;;;;;4.72;0.70;;;17.40;97.80;;;;;;4959407;28;20023;-74
2021/06/05 07:50:32;;;;;;;3.63;0.82;;;17.50;96.80;;;;;;4954555;28;20153;-74
2021/06/05 07:52:58;;;;;;;2.30;0.88;;;17.60;97.20;;;;;;4955607;28;20074;-73
2021/06/05 07:55:24;;;;;;;2.17;0.50;;;17.70;96.70;;;;;;4955394;28;20031;-73
2021/06/05 07:57:50;;;;;;;4.88;0.90;;;17.70;95.10;;;;;;4956869;28;20051;-73
2021/06/05 08:00:19;;;;;;;2.05;0.70;;;17.70;94.60;;;;;;4960227;28;20035;-74
2021/06/05 08:02:45;;;;;;;2.67;0.90;;;17.80;92.70;;;;;;4958128;28;20026;-73
2021/06/05 08:05:13;;;;;;;1.85;0.80;;;17.80;94.00;;;;;;4953508;28;20023;-74
2021/06/05 08:07:39;;;;;;;2.28;0.65;;;17.80;94.00;;;;;;4960238;28;20038;-73
2021/06/05 08:10:07;;;;;;;4.13;0.80;;;17.90;95.40;;;;;;4953273;28;20028;-78
2021/06/05 08:12:33;;;;;;;5.60;1.10;;;17.90;94.20;;;;;;4957686;28;20508;-73
2021/06/05 08:14:59;;;;;;;3.42;1.20;;;18.00;93.30;;;;;;4953898;28;20023;-74
2021/06/05 08:17:25;;;;;;;4.68;1.15;;;18.10;93.30;;;;;;4959427;28;20038;-75
2021/06/05 08:19:50;;;;;;;5.93;0.77;;;18.10;94.40;;;;;;4953525;28;20388;-73
2021/06/05 08:22:22;;;;;;;5.13;1.20;;;18.10;94.50;;;;;;4962060;28;20035;-74
2021/06/05 08:24:48;;;;;;;3.92;0.90;;;18.20;95.80;;;;;;4940573;29;20054;-73
2021/06/05 08:27:14;;;;;;;6.32;1.30;;;18.30;97.00;;;;;;4963985;28;20134;-74
2021/06/05 08:29:40;;;;;;;4.30;1.10;;;18.30;97.30;;;;;;4953768;28;20031;-81
2021/06/05 08:32:06;;;;;;;2.25;0.88;;;18.30;96.30;;;;;;4956749;28;20511;-74
2021/06/05 08:34:32;;;;;;;3.60;1.05;;;18.40;96.30;;;;;;4955490;28;20059;-74
2021/06/05 08:36:58;;;;;;;6.78;1.00;;;18.40;95.60;;;;;;4957069;28;20066;-74
2021/06/05 08:39:24;;;;;;;3.78;1.00;;;18.50;94.90;;;;;;4958696;28;20491;-82
2021/06/05 08:41:57;;;;;;;2.67;1.10;;;18.50;94.40;;;;;;4957865;28;20099;-73
2021/06/05 08:44:36;;;;;;;5.32;1.33;;;18.50;93.60;;;;;;4956945;28;20046;-77
2021/06/05 08:47:21;;;;;;;4.30;1.13;;;18.60;95.00;;;;;;4952036;28;20028;-74
2021/06/05 08:49:48;;;;;;;3.75;1.17;;;18.70;94.50;;;;;;4953537;29;20167;-74
2021/06/05 08:52:42;;;;;;;2.15;0.80;;;18.70;93.90;;;;;;4958074;28;20140;-73
2021/06/05 08:55:22;;;;;;;3.33;1.05;;;18.60;92.30;;;;;;4954704;29;20369;-77
2021/06/05 08:57:53;;;;;;;4.55;1.17;;;18.60;92.60;;;;;;4957170;28;20051;-74
2021/06/05 09:00:31;;;;;;;5.63;1.70;;;18.50;93.10;;;;;;4953022;28;20569;-73
2021/06/05 09:03:06;;;;;;;5.20;1.63;;;18.60;95.60;;;;;;4955011;28;20034;-77
2021/06/05 09:05:35;;;;;;;6.75;1.60;;;18.60;95.70;;;;;;4954840;28;20019;-78
2021/06/05 09:08:03;;;;;;;4.68;1.88;;;18.60;95.20;;;;;;4955280;28;20031;-73
2021/06/05 09:10:31;;;;;;;5.25;1.63;;;18.70;95.50;;;;;;4954161;28;20027;-74
2021/06/05 09:12:57;;;;;;;4.32;1.55;;;18.70;95.70;;;;;;4954810;28;20031;-73
2021/06/05 09:15:30;;;;;;;6.57;2.20;;;18.70;95.40;;;;;;4952588;28;20031;-76
2021/06/05 09:18:00;;;;;;;10.45;2.45;;;18.80;95.80;;;;;;4959284;28;20020;-75
2021/06/05 09:21:02;;;;;;;10.13;4.30;;;18.80;95.50;;;;;;4954897;28;20034;-75
2021/06/05 09:23:37;;;;;;;4.22;2.67;;;18.70;95.20;;;;;;4964992;28;20090;-75
2021/06/05 09:26:27;;;;;;;8.95;3.20;;;18.80;96.00;;;;;;4952328;29;20434;-74
2021/06/05 09:29:08;;;;;;;7.60;3.85;;;19.00;95.80;;;;;;4947440;28;20604;-74
2021/06/05 09:31:48;;;;;;;14.68;4.15;;;18.90;95.80;;;;;;4953707;28;20066;-73
2021/06/05 09:34:15;;;;;;;7.82;3.58;;;19.00;96.50;;;;;;4952478;28;20031;-72
2021/06/05 09:36:40;;;;;;;10.45;4.13;;;19.00;96.70;;;;;;4954327;28;20155;-73
2021/06/05 09:39:10;;;;;;;5.63;3.28;;;19.10;96.30;;;;;;4953663;28;20237;-73
2021/06/05 09:41:36;;;;;;;8.38;4.15;;;19.10;94.50;;;;;;4954047;28;20047;-72
2021/06/05 09:44:23;;;;;;;6.45;2.50;;;19.00;96.20;;;;;;4954240;28;20030;-74
2021/06/05 09:47:02;;;;;;;5.55;2.20;;;19.00;95.00;;;;;;4954422;28;20258;-73
2021/06/05 09:49:39;;;;;;;5.22;2.38;;;18.90;94.70;;;;;;4955106;28;20595;-72
2021/06/05 09:52:30;;;;;;;4.38;1.95;;;18.90;95.30;;;;;;4954184;28;20054;-73
2021/06/05 09:54:59;;;;;;;8.07;2.33;;;18.90;94.70;;;;;;4947712;29;20032;-72
2021/06/05 09:57:31;;;;;;;6.03;1.83;;;19.00;94.40;;;;;;4953905;28;20086;-73
2021/06/05 10:00:26;;;;;;;5.65;2.20;;;19.10;94.40;;;;;;4969895;28;20044;-73
2021/06/05 10:03:11;;;;;;;5.28;1.90;;;19.10;94.20;;;;;;4954440;28;20114;-72
2021/06/05 10:05:40;;;;;;;3.75;1.65;;;19.10;93.80;;;;;;4952911;28;20518;-73
2021/06/05 10:08:24;;;;;;;5.47;1.80;;;19.20;93.60;;;;;;4953936;28;20059;-72
2021/06/05 10:10:57;;;;;;;3.70;1.80;;;19.30;94.30;;;;;;4942144;28;20031;-72
2021/06/05 10:13:27;;;;;;;3.70;1.80;;;19.30;93.60;;;;;;4953604;28;20033;-72
2021/06/05 10:16:05;;;;;;;6.88;1.83;;;19.30;93.90;;;;;;4952446;28;20465;-72
2021/06/05 10:18:44;;;;;;;7.05;1.55;;;19.40;92.50;;;;;;4953347;28;20035;-73
2021/06/05 10:21:16;;;;;;;4.95;1.88;;;19.50;92.20;;;;;;4952022;28;20034;-72
2021/06/05 10:23:51;;;;;;;4.03;1.50;;;19.40;93.40;;;;;;4959522;28;20040;-72
2021/06/05 10:26:22;;;;;;;;;;;19.60;91.70;;;;;;4953599;28;20560;-73
2021/06/05 10:28:57;;;;;;;4.35;1.50;;;19.60;92.10;;;;;;4943639;29;19915;-72
2021/06/05 10:31:25;;;;;;;4.47;1.38;;;19.50;92.00;;;;;;4954054;28;20055;-73
2021/06/05 10:34:03;;;;;;;4.18;1.08;;;19.60;91.00;;;;;;4974048;28;20035;-72
2021/06/05 10:36:34;;;;;;;4.57;1.08;;;19.60;91.30;;;;;;4953572;28;20388;-73
2021/06/05 10:39:12;;;;;;;6.18;1.33;;;19.70;91.50;;;;;;4953053;28;20027;-72
2021/06/05 10:41:43;;;;;;;3.83;1.30;;;19.90;91.50;;;;;;4953496;28;20044;-73
2021/06/05 10:44:10;;;;;;;8.15;1.20;;;20.10;90.60;;;;;;4968556;28;20174;-72
2021/06/05 10:46:54;;;;;;;2.88;1.10;;;20.20;88.80;;;;;;4953828;28;20019;-73
2021/06/05 10:49:30;;;;;;;4.63;1.60;;;20.20;88.30;;;;;;4954496;28;20027;-73
2021/06/05 10:52:33;;;;;;;5.15;1.08;;;20.10;89.20;;;;;;4947922;28;20042;-73
2021/06/05 10:55:10;;;;;;;4.03;1.20;;;20.20;89.50;;;;;;4948679;29;20078;-73
2021/06/05 10:57:40;;;;;;;2.88;0.93;;;20.30;88.90;;;;;;4954993;28;20138;-72
2021/06/05 11:00:35;;;;;;;3.75;1.10;;;20.60;89.10;;;;;;4953826;28;20106;-73
2021/06/05 11:03:01;;;;;;;3.78;1.02;;;20.70;87.10;;;;;;4948957;28;20505;-73
2021/06/05 11:05:31;;;;;;;4.82;1.27;;;20.70;87.80;;;;;;4951346;28;20015;-72
2021/06/05 11:08:10;;;;;;;4.22;1.27;;;20.50;86.10;;;;;;4957007;28;20101;-74
2021/06/05 11:11:12;;;;;;;4.28;1.23;;;20.30;86.00;;;;;;4955190;28;20515;-73
2021/06/05 11:13:41;;;;;;;5.10;1.25;;;20.20;85.60;;;;;;4955481;28;20059;-73
2021/06/05 11:16:19;;;;;;;5.28;1.20;;;20.40;86.10;;;;;;4957218;28;20011;-72
2021/06/05 11:18:48;;;;;;;4.40;1.25;;;20.40;86.10;;;;;;4954133;28;20055;-72
2021/06/05 11:21:23;;;;;;;4.65;0.85;;;20.40;85.40;;;;;;4956626;28;20035;-72
2021/06/05 11:23:58;;;;;;;3.08;1.00;;;20.60;84.90;;;;;;4961806;28;20193;-73
2021/06/05 11:26:41;;;;;;;4.10;1.00;;;20.60;84.80;;;;;;4956895;28;20024;-73
2021/06/05 11:29:19;;;;;;;4.80;1.20;;;20.60;83.40;;;;;;4958556;28;20031;-73
2021/06/05 11:31:47;;;;;;;3.50;1.13;;;20.70;84.50;;;;;;4959862;28;20114;-73
2021/06/05 11:34:37;;;;;;;5.70;1.20;;;20.60;83.20;;;;;;4958996;28;20039;-73
2021/06/05 11:37:05;;;;;;;5.45;1.75;;;20.50;88.20;;;;;;4962197;28;20038;-73
2021/06/05 11:39:31;;;;;;;5.70;1.27;;;20.60;84.50;;;;;;4955808;28;20106;-73
2021/06/05 11:42:00;;;;;;;4.85;1.13;;;20.70;85.10;;;;;;4956527;28;20480;-74
2021/06/05 11:44:41;;;;;;;5.40;1.58;;;21.00;84.00;;;;;;4957231;28;20440;-72
2021/06/05 11:47:16;;;;;;;4.45;1.58;;;21.10;82.10;;;;;;4955324;28;20630;-73
2021/06/05 11:49:42;;;;;;;5.13;1.40;;;21.00;84.60;;;;;;4957165;28;20102;-73
2021/06/05 11:52:26;;;;;;;3.80;1.40;;;21.00;83.90;;;;;;4955731;28;20107;-73
2021/06/05 11:54:57;;;;;;;2.80;1.08;;;20.90;84.40;;;;;;4945636;29;20162;-73
2021/06/05 11:57:27;;;;;;;4.70;1.30;;;21.10;86.80;;;;;;4959046;28;20043;-72
2021/06/05 11:59:58;;;;;;;4.57;1.52;;;21.40;81.30;;;;;;4968563;28;20037;-73
2021/06/05 12:02:34;;;;;;;4.65;1.20;;;21.50;81.60;;;;;;4957523;28;20051;-73
2021/06/05 12:05:05;;;;;;;5.88;1.42;;;21.50;82.20;;;;;;4948864;29;20381;-73
2021/06/05 12:07:35;;;;;;;2.38;1.00;;;21.80;82.30;;;;;;4957932;28;20117;-74
2021/06/05 12:10:02;;;;;;;3.78;1.35;;;21.90;79.50;;;;;;4951904;28;20035;-72
2021/06/05 12:12:31;;;;;;;3.90;1.38;;;22.10;79.60;;;;;;4951550;28;20054;-73
2021/06/05 12:15:25;;;;;;;5.95;1.40;;;21.90;77.50;;;;;;4953501;28;20023;-73
2021/06/05 12:18:01;;;;;;;3.88;1.52;;;21.80;79.90;;;;;;4975964;28;20106;-73
2021/06/05 12:20:34;;;;;;;3.55;1.20;;;21.80;79.00;;;;;;4957684;28;20027;-73
2021/06/05 12:23:27;;;;;;;6.97;1.02;;;21.60;78.90;;;;;;4956851;28;20047;-72
2021/06/05 12:26:05;;;;;;;5.07;1.30;;;22.00;80.90;;;;;;4952587;28;20062;-72
2021/06/05 12:28:35;;;;;;;4.60;1.40;;;22.30;82.00;;;;;;4959218;28;20023;-72
2021/06/05 12:31:41;;;;;;;4.22;1.30;;;22.20;78.80;;;;;;4955140;28;20031;-72
2021/06/05 12:34:13;;;;;;;7.45;1.35;;;22.60;81.10;;;;;;4951722;28;20031;-73
2021/06/05 12:36:44;;;;;;;4.38;1.27;;;22.80;81.40;;;;;;4955976;28;20054;-73
2021/06/05 12:39:12;;;;;;;6.20;1.38;;;23.10;79.30;;;;;;4957523;28;20032;-74
2021/06/05 12:41:41;;;;;;;2.90;1.15;;;23.30;77.10;;;;;;4956780;28;20142;-74
2021/06/05 12:44:08;;;;;;;4.55;1.00;;;23.30;75.60;;;;;;4958658;28;20023;-84
2021/06/05 12:46:37;;;;;;;3.72;1.17;;;23.40;78.50;;;;;;4956626;28;20027;-84
2021/06/05 12:49:15;;;;;;;3.33;1.40;;;23.40;74.90;;;;;;4958411;28;20027;-84
2021/06/05 12:51:49;;;;;;;6.30;1.25;;;23.70;75.60;;;;;;4955327;28;20117;-85
2021/06/05 12:54:48;;;;;;;;;;;23.60;76.90;;;;;;4955471;28;20159;-85
2021/06/05 12:57:32;;;;;;;4.70;1.50;;;23.90;73.90;;;;;;4956653;28;19918;-85
2021/06/05 12:59:58;;;;;;;4.10;1.23;;;23.60;73.60;;;;;;4971177;28;20035;-85